createdAt,value
2022-07-30T00:03:00.805Z,36.13
2022-07-30T00:10:34.328Z,35.97
2022-07-30T00:18:04.988Z,35.85
2022-07-30T00:25:43.533Z,35.9
2022-07-30T00:33:33.140Z,35.78
2022-07-30T00:41:08.661Z,35.78
2022-07-30T00:48:56.462Z,35.97
2022-07-30T00:56:37.786Z,36.02
2022-07-30T01:04:12.832Z,36.07
2022-07-30T01:11:36.449Z,36.08
2022-07-30T01:19:24.678Z,36.04
2022-07-30T01:27:38.198Z,36.04
2022-07-30T01:35:31.093Z,36
2022-07-30T01:43:27.463Z,35.97
2022-07-30T01:51:04.846Z,35.93
2022-07-30T01:58:53.702Z,35.86
2022-07-30T02:06:38.875Z,35.83
2022-07-30T02:14:41.678Z,35.79
2022-07-30T02:22:48.362Z,35.78
2022-07-30T02:30:31.579Z,35.63
2022-07-30T02:38:14.699Z,35.58
2022-07-30T02:45:38.384Z,35.6
2022-07-30T02:52:38.644Z,35.33
2022-07-30T02:59:22.859Z,35.11
2022-07-30T03:06:06.788Z,35.01
2022-07-30T03:12:36.724Z,35
2022-07-30T03:19:17.103Z,34.98
2022-07-30T03:26:00.573Z,34.85
2022-07-30T03:32:36.651Z,34.66
2022-07-30T03:39:07.508Z,34.69
2022-07-30T03:45:47.008Z,34.6
2022-07-30T03:52:18.652Z,34.8
2022-07-30T03:58:43.932Z,34.71
2022-07-30T04:05:19.958Z,34.74
2022-07-30T04:11:44.762Z,34.45
2022-07-30T04:18:23.509Z,34.54
2022-07-30T04:25:05.744Z,34.5
2022-07-30T04:31:41.362Z,34.67
2022-07-30T04:38:06.228Z,34.68
2022-07-30T04:44:31.270Z,34.65
2022-07-30T04:51:10.718Z,34.75
2022-07-30T04:57:50.877Z,34.65
2022-07-30T05:04:26.264Z,34.76
2022-07-30T05:10:59.447Z,34.88
2022-07-30T05:17:23.987Z,34.96
2022-07-30T05:23:50.839Z,34.96
2022-07-30T05:30:18.131Z,34.99
2022-07-30T05:36:58.778Z,35.07
2022-07-30T05:43:23.697Z,35.03
2022-07-30T05:49:48.332Z,34.97
2022-07-30T05:56:15.541Z,35.01
2022-07-30T06:02:43.623Z,34.94
2022-07-30T06:09:15.708Z,34.78
2022-07-30T06:15:48.092Z,34.73
2022-07-30T06:22:12.852Z,34.62
2022-07-30T06:28:40.116Z,34.66
2022-07-30T06:35:05.799Z,34.67
2022-07-30T06:41:30.251Z,34.59
2022-07-30T06:48:02.676Z,34.61
2022-07-30T06:54:26.046Z,34.57
2022-07-30T07:00:56.051Z,34.58
2022-07-30T07:07:40.578Z,34.53
2022-07-30T07:14:05.181Z,34.59
2022-07-30T07:20:30.069Z,34.5
2022-07-30T07:27:04.689Z,34.5
2022-07-30T07:33:44.082Z,34.5
2022-07-30T07:40:12.729Z,34.53
2022-07-30T07:46:41.169Z,34.39
2022-07-30T07:53:13.720Z,34.34
2022-07-30T07:59:42.847Z,34.08
2022-07-30T08:06:23.753Z,34.13
2022-07-30T08:12:50.818Z,34.22
2022-07-30T08:19:20.133Z,34.28
2022-07-30T08:25:55.209Z,34.2
2022-07-30T08:32:26.659Z,34.21
2022-07-30T08:38:47.604Z,34.26
2022-07-30T08:45:34.372Z,34.14
2022-07-30T08:52:15.671Z,34.12
2022-07-30T08:58:57.773Z,34.3
2022-07-30T09:05:24.643Z,34.45
2022-07-30T09:11:49.958Z,34.47
2022-07-30T09:18:34.213Z,34.39
2022-07-30T09:25:20.124Z,34.22
2022-07-30T09:32:06.768Z,34.31
2022-07-30T09:38:54.766Z,34.08
2022-07-30T09:45:56.629Z,34.39
2022-07-30T09:52:48.896Z,34.47
2022-07-30T09:59:25.217Z,34.51
2022-07-30T10:06:16.559Z,34.48
2022-07-30T10:12:46.267Z,34.58
2022-07-30T10:19:23.799Z,34.53
2022-07-30T10:25:56.757Z,34.5
2022-07-30T10:32:31.297Z,34.52
2022-07-30T10:39:07.406Z,34.56
2022-07-30T10:46:20.184Z,34.49
2022-07-30T10:53:09.803Z,34.49
2022-07-30T10:59:55.061Z,34.56
2022-07-30T11:06:45.045Z,34.54
2022-07-30T11:13:37.565Z,34.52
2022-07-30T11:20:35.865Z,34.5
2022-07-30T11:27:22.895Z,34.57
2022-07-30T11:34:18.016Z,34.4
2022-07-30T11:41:12.198Z,34.36
2022-07-30T11:48:05.108Z,34.31
2022-07-30T11:55:05.891Z,34.16
2022-07-30T12:01:52.790Z,34.36
2022-07-30T12:08:31.831Z,34.42
2022-07-30T12:15:31.893Z,34.5
2022-07-30T12:22:14.111Z,34.5
2022-07-30T12:28:40.337Z,34.42
2022-07-30T12:35:08.581Z,34.38
2022-07-30T12:42:05.450Z,34.37
2022-07-30T12:48:39.058Z,34.43
2022-07-30T12:55:35.854Z,34.31
2022-07-30T13:02:24.822Z,34.22
2022-07-30T13:09:13.295Z,34.35
2022-07-30T13:15:55.634Z,34.32
2022-07-30T13:22:27.180Z,34.31
2022-07-30T13:28:52.050Z,34.35
2022-07-30T13:35:31.452Z,34.29
2022-07-30T13:42:00.337Z,34.33
2022-07-30T13:48:29.092Z,34.3
2022-07-30T13:55:02.026Z,34.24
2022-07-30T14:01:34.566Z,34.24
2022-07-30T14:07:55.521Z,34.21
2022-07-30T14:14:19.020Z,34.19
2022-07-30T14:20:49.365Z,34.19
2022-07-30T14:27:14.089Z,34.11
2022-07-30T14:33:37.075Z,34.11
2022-07-30T14:40:00.042Z,34.15
2022-07-30T14:46:26.394Z,34.14
2022-07-30T14:52:58.294Z,34.08
2022-07-30T14:59:22.486Z,34.13
2022-07-30T15:05:57.129Z,33.82
2022-07-30T15:12:27.912Z,34.05
2022-07-30T15:19:04.414Z,34.06
2022-07-30T15:25:31.265Z,34.09
2022-07-30T15:32:02.768Z,33.98
2022-07-30T15:38:32.448Z,34.06
2022-07-30T15:45:17.011Z,33.84
2022-07-30T15:51:43.215Z,34.02
2022-07-30T15:58:32.779Z,34.01
2022-07-30T16:05:16.057Z,34.04
2022-07-30T16:11:59.993Z,33.9
2022-07-30T16:18:54.672Z,34.13
2022-07-30T16:25:56.444Z,34.47
2022-07-30T16:32:33.344Z,34.35
2022-07-30T16:39:25.274Z,34.37
2022-07-30T16:46:03.324Z,34.1
2022-07-30T16:52:50.590Z,34.29
2022-07-30T16:59:31.038Z,33.77
2022-07-30T17:06:16.782Z,34
2022-07-30T17:13:34.057Z,34.59
2022-07-30T17:20:48.864Z,34.77
2022-07-30T17:28:11.283Z,34.75
2022-07-30T17:35:02.611Z,34.35
2022-07-30T17:41:55.642Z,34.35
2022-07-30T17:49:13.761Z,34.33
2022-07-30T17:56:26.674Z,34.67
2022-07-30T18:03:05.067Z,34.54
2022-07-30T18:09:56.503Z,34.51
2022-07-30T18:17:14.754Z,34.66
2022-07-30T18:24:27.066Z,34.92
2022-07-30T18:31:48.513Z,35
2022-07-30T18:38:42.427Z,34.8
2022-07-30T18:45:37.681Z,34.5
2022-07-30T18:52:19.876Z,34.18
2022-07-30T18:59:28.536Z,34.37
2022-07-30T19:06:43.261Z,34.68
2022-07-30T19:14:03.583Z,34.83
2022-07-30T19:20:56.533Z,34.36
2022-07-30T19:27:50.942Z,34.53
2022-07-30T19:34:24.547Z,34.27
2022-07-30T19:41:14.245Z,34.53
2022-07-30T19:47:49.690Z,34.58
2022-07-30T19:54:31.161Z,34.56
2022-07-30T20:00:56.687Z,34.43
2022-07-30T20:07:35.853Z,34.36
2022-07-30T20:14:04.257Z,34.37
2022-07-30T20:20:26.101Z,34.5
2022-07-30T20:27:10.202Z,34.49
2022-07-30T20:33:49.606Z,34.48
2022-07-30T20:40:15.269Z,34.51
2022-07-30T20:46:40.266Z,34.54
2022-07-30T20:53:05.000Z,34.55
2022-07-30T20:59:31.267Z,34.54
2022-07-30T21:06:02.421Z,34.58
2022-07-30T21:12:34.525Z,34.57
2022-07-30T21:19:04.596Z,34.5
2022-07-30T21:25:33.798Z,34.5
2022-07-30T21:32:25.803Z,34.5
2022-07-30T21:38:54.432Z,34.48
2022-07-30T21:45:20.604Z,34.52
2022-07-30T21:52:03.855Z,34.57
2022-07-30T21:58:38.910Z,34.51
2022-07-30T22:05:11.023Z,34.52
2022-07-30T22:11:42.320Z,34.54
2022-07-30T22:18:12.614Z,34.64
2022-07-30T22:24:41.422Z,34.73
2022-07-30T22:31:15.938Z,34.73
2022-07-30T22:38:23.128Z,34.77
2022-07-30T22:45:45.050Z,34.91
2022-07-30T22:54:10.210Z,34.98
2022-07-30T23:01:03.425Z,35.08
2022-07-30T23:07:53.764Z,34.92
2022-07-30T23:14:28.642Z,34.91
2022-07-30T23:21:05.345Z,34.81
2022-07-30T23:27:26.265Z,34.91
2022-07-30T23:33:53.451Z,34.89
2022-07-30T23:40:24.181Z,34.75
2022-07-30T23:46:55.516Z,34.7
2022-07-30T23:53:24.670Z,34.65
2022-07-30T23:59:46.437Z,34.61
